ADDS TAF Data INFO
IDs: Format: Raw Decoded Include METARs

Data at: 2117 UTC 20 Nov 2017

KOSH 202053Z 20014G23KT 10SM CLR 08/00 A2958 RMK AO2 SLP025 T00830000 56036

No TAF found for KOSH

KATW 202045Z 18015G20KT 10SM SCT120 08/M03 A2955

KATW 201722Z 2018/2118 20012KT P6SM SCT120 BKN250
  FM202300 20012KT P6SM SCT120 BKN200 WS016/22045KT
  FM210200 21014G18KT P6SM BKN150 WS016/24055KT
  FM210800 24013G18KT P6SM SCT120 BKN250 WS016/27040KT
  FM211200 27014G22KT P6SM SCT040 OVC120 WS016/29030KT
  FM211500 29018G28KT P6SM BKN035